Arvaiheer, Mongolia
Current Conditions -  °F | °C
As of 10:00 AM on Thursday 27 Nov 2014 (Local Time) from ZMUB Reporting Station
Smoke Smoke  
Wind Chill: -2°   Ceiling: 25000
Heat Index: -2°   Visibility: 3mi
Dew Point: -13°   Wind: 0mph
Humidity: 60%   Direction: NA
Pressure: 29.8"   Gusts: NA
Location:  46.27°N, 102.78°E
Report Text: ZMUB 270200Z 00000MPS 5000NW FU BKN250 M19/M25 Q1009 NOSIG RMK QFE650.3 60 NW MO
Loading
Personal Weather Stations






























Interactive Weather Map New forecast layout! Learn more

10-Day Weather Forecast

Advertisements
Track Severe Weather on mobile